Time;durP1;ratioP1;P1;durP2;ratioP2;P2;SDS_P1;SDS_P2;PMS_P1;PMS_P2;Temp;Humidity;BMP_temperature;BMP_pressure;BME280_temperature;BME280_humidity;BME280_pressure;Samples;Min_cycle;Max_cycle;Signal;HPM_P1;HPM_P2
2022/11/23 00:01:17;;;;;;;13.45;12.15;;;;;;;7.50;81.52;93685.50;5014482;28;20206;-71
2022/11/23 00:03:44;;;;;;;11.80;10.60;;;;;;;7.49;81.51;93705.88;5014754;28;20195;-71
2022/11/23 00:06:11;;;;;;;11.40;10.30;;;;;;;7.50;81.16;93701.97;5014446;28;20207;-71
2022/11/23 00:08:38;;;;;;;11.27;10.20;;;;;;;7.52;80.69;93707.88;5014725;28;20222;-71
2022/11/23 00:11:06;;;;;;;10.32;9.32;;;;;;;7.52;80.15;93709.84;5031249;28;20199;-71
2022/11/23 00:13:38;;;;;;;9.68;8.77;;;;;;;7.52;80.70;93698.88;5014442;28;20211;-71
2022/11/23 00:16:05;;;;;;;10.32;9.32;;;;;;;7.51;80.90;93700.78;5014479;28;20635;-71
2022/11/23 00:18:32;;;;;;;9.98;9.07;;;;;;;7.54;80.64;93677.31;5014726;28;20203;-71
2022/11/23 00:20:59;;;;;;;9.60;8.80;;;;;;;7.53;80.71;93681.22;5014532;28;20242;-71
2022/11/23 00:23:26;;;;;;;9.30;8.43;;;;;;;7.51;80.52;93680.78;5014468;28;20651;-71
2022/11/23 00:25:53;;;;;;;8.95;8.15;;;;;;;7.50;80.95;93676.47;5014944;28;20203;-71
2022/11/23 00:28:21;;;;;;;8.57;7.78;;;;;;;7.48;81.32;93674.91;5014796;28;20198;-71
2022/11/23 00:30:51;;;;;;;8.15;7.43;;;;;;;7.48;81.36;93671.38;5014529;28;20191;-72
2022/11/23 00:33:17;;;;;;;8.07;7.28;;;;;;;7.49;81.74;93678.44;5014597;28;20199;-71
2022/11/23 00:35:45;;;;;;;8.60;7.80;;;;;;;7.51;82.08;93687.06;5014130;28;20202;-71
2022/11/23 00:38:12;;;;;;;8.90;8.10;;;;;;;7.53;82.28;93687.50;5014439;28;20190;-71
2022/11/23 00:40:39;;;;;;;9.43;8.52;;;;;;;7.55;81.90;93684.38;5014946;28;20623;-71
2022/11/23 00:43:05;;;;;;;10.00;9.10;;;;;;;7.56;82.23;93678.53;5030806;28;20226;-71
2022/11/23 00:45:33;;;;;;;10.82;9.73;;;;;;;7.55;82.36;93687.13;5013950;28;20203;-72
2022/11/23 00:48:00;;;;;;;11.35;10.25;;;;;;;7.54;82.57;93680.06;5014664;28;20209;-72
2022/11/23 00:50:27;;;;;;;11.18;10.10;;;;;;;7.54;82.87;93680.84;5014373;28;20210;-72
2022/11/23 00:52:53;;;;;;;11.50;10.35;;;;;;;7.53;83.07;93668.31;5014416;28;20203;-72
2022/11/23 00:55:20;;;;;;;11.07;10.02;;;;;;;7.52;82.71;93672.22;5014337;28;20199;-72
2022/11/23 00:57:47;;;;;;;11.18;10.18;;;;;;;7.52;82.99;93683.19;5014213;28;20210;-71
2022/11/23 01:00:14;;;;;;;11.82;10.73;;;;;;;7.51;82.53;93689.81;5014483;28;20206;-71
2022/11/23 01:02:43;;;;;;;11.75;10.68;;;;;;;7.46;83.16;93679.94;5013858;28;20219;-71
2022/11/23 01:05:09;;;;;;;11.60;10.35;;;;;;;7.44;83.20;93673.22;5014396;28;20210;-71
2022/11/23 01:07:36;;;;;;;10.65;9.55;;;;;;;7.48;82.98;93674.13;5014268;28;20202;-71
2022/11/23 01:10:05;;;;;;;10.70;9.80;;;;;;;7.49;83.28;93664.72;5014485;28;20199;-71
2022/11/23 01:12:32;;;;;;;9.55;8.55;;;;;;;7.50;83.39;93665.50;5015734;28;20278;-71
2022/11/23 01:14:59;;;;;;;8.98;8.07;;;;;;;7.55;83.44;93667.91;5018135;28;20562;-71
2022/11/23 01:17:25;;;;;;;7.50;6.82;;;;;;;7.57;82.84;93677.38;5017886;28;20245;-71
2022/11/23 01:19:53;;;;;;;7.13;6.38;;;;;;;7.57;82.55;93674.63;5017989;28;20302;-71
2022/11/23 01:22:20;;;;;;;7.22;6.47;;;;;;;7.56;83.03;93675.00;5018091;28;20210;-71
2022/11/23 01:24:47;;;;;;;7.50;6.80;;;;;;;7.56;83.13;93664.81;5017264;28;20654;-72
2022/11/23 01:27:13;;;;;;;7.88;7.15;;;;;;;7.54;83.49;93680.06;5017449;28;20199;-72
2022/11/23 01:29:40;;;;;;;6.55;5.95;;;;;;;7.54;83.21;93677.31;5017141;28;20202;-73
2022/11/23 01:32:07;;;;;;;6.97;6.38;;;;;;;7.53;83.02;93671.03;5017703;28;20187;-73
2022/11/23 01:34:34;;;;;;;6.88;6.28;;;;;;;7.52;83.64;93665.94;5017305;28;20210;-72
2022/11/23 01:37:02;;;;;;;7.07;6.47;;;;;;;7.51;83.46;93651.41;5017446;28;20211;-72
2022/11/23 01:39:29;;;;;;;7.10;6.40;;;;;;;7.54;83.17;93655.38;5017271;28;20624;-72
2022/11/23 01:41:56;;;;;;;6.57;6.03;;;;;;;7.53;83.47;93659.28;5017819;28;20257;-72
2022/11/23 01:44:24;;;;;;;6.97;6.38;;;;;;;7.47;83.39;93678.78;5017468;28;20257;-72
2022/11/23 01:46:51;;;;;;;6.82;6.28;;;;;;;7.47;83.82;93670.53;5017534;28;20202;-72
2022/11/23 01:49:18;;;;;;;6.97;6.28;;;;;;;7.50;83.86;93665.50;5017513;28;20202;-72
2022/11/23 01:51:46;;;;;;;6.80;6.10;;;;;;;7.50;83.76;93673.72;5017258;28;20194;-72
2022/11/23 01:54:16;;;;;;;7.43;6.80;;;;;;;7.46;83.88;93679.94;5034096;28;20203;-73
2022/11/23 01:56:46;;;;;;;6.72;6.13;;;;;;;7.42;84.26;93679.09;5017771;28;20191;-72
2022/11/23 01:59:16;;;;;;;6.97;6.35;;;;;;;7.45;84.02;93666.59;5018083;28;20206;-72
2022/11/23 02:01:43;;;;;;;6.53;5.93;;;;;;;7.48;83.89;93649.41;5018075;28;20534;-71
2022/11/23 02:04:14;;;;;;;6.65;6.05;;;;;;;7.50;84.12;93649.81;5017524;28;20242;-72
2022/11/23 02:06:41;;;;;;;6.30;5.80;;;;;;;7.52;83.93;93638.50;5017627;28;20203;-71
2022/11/23 02:09:08;;;;;;;7.20;6.60;;;;;;;7.51;84.07;93648.66;5018084;28;20202;-71
2022/11/23 02:11:36;;;;;;;6.55;6.05;;;;;;;7.51;84.33;93653.34;5017366;28;20215;-71
2022/11/23 02:14:03;;;;;;;7.22;6.63;;;;;;;7.51;84.42;93648.66;5017714;28;20211;-71
2022/11/23 02:16:30;;;;;;;6.75;6.15;;;;;;;7.51;84.23;93639.63;5033396;28;20207;-71
2022/11/23 02:18:57;;;;;;;6.07;5.57;;;;;;;7.51;84.22;93645.91;5016595;28;20211;-71
2022/11/23 02:21:24;;;;;;;6.93;6.32;;;;;;;7.52;84.42;93644.78;4997010;28;20199;-71
2022/11/23 02:23:55;;;;;;;7.80;7.00;;;;;;;7.50;84.12;93638.84;4997131;28;20223;-71
2022/11/23 02:26:26;;;;;;;7.75;7.05;;;;;;;7.51;84.44;93640.44;4996737;28;20211;-71
2022/11/23 02:28:55;;;;;;;6.65;6.00;;;;;;;7.52;84.11;93633.81;4997092;28;20194;-71
2022/11/23 02:31:22;;;;;;;7.13;6.38;;;;;;;7.51;84.21;93631.41;4996463;28;20199;-71
2022/11/23 02:33:49;;;;;;;7.05;6.45;;;;;;;7.48;84.32;93638.44;4996720;28;20616;-71
2022/11/23 02:36:37;;;;;;;6.93;6.35;;;;;;;7.48;84.61;93635.69;4996467;28;20640;-71
2022/11/23 02:39:08;;;;;;;7.65;6.90;;;;;;;7.50;84.67;93621.59;4996827;28;20200;-71
2022/11/23 02:41:38;;;;;;;6.78;6.22;;;;;;;7.49;84.36;93609.84;5012467;28;20307;-71
2022/11/23 02:44:06;;;;;;;6.68;6.07;;;;;;;7.44;84.27;93599.97;4996612;28;20224;-71
2022/11/23 02:46:33;;;;;;;7.10;6.40;;;;;;;7.42;84.79;93605.03;4996769;28;20200;-71
2022/11/23 02:49:00;;;;;;;6.10;5.60;;;;;;;7.45;84.90;93601.56;5012734;28;20229;-71
2022/11/23 02:51:26;;;;;;;6.93;6.40;;;;;;;7.46;84.95;93599.59;4996256;28;20200;-71
2022/11/23 02:53:53;;;;;;;6.00;5.50;;;;;;;7.48;84.99;93594.56;4996440;28;20593;-71
2022/11/23 02:56:20;;;;;;;6.63;6.13;;;;;;;7.47;84.65;93591.00;4996358;28;20207;-72
2022/11/23 02:58:48;;;;;;;7.18;6.47;;;;;;;7.46;84.54;93585.88;4996220;28;20246;-72
2022/11/23 03:01:16;;;;;;;7.55;6.80;;;;;;;7.46;84.28;93594.91;4996046;28;20210;-72
2022/11/23 03:03:42;;;;;;;7.47;6.88;;;;;;;7.35;84.13;93574.75;5012264;28;20216;-72
2022/11/23 03:06:09;;;;;;;8.20;7.40;;;;;;;7.26;84.52;93601.63;4996679;28;20200;-72
2022/11/23 03:08:36;;;;;;;8.20;7.55;;;;;;;7.28;84.78;93593.06;4996230;28;20223;-72
2022/11/23 03:11:03;;;;;;;8.20;7.50;;;;;;;7.33;84.76;93563.34;4995892;28;20195;-72
2022/11/23 03:13:29;;;;;;;8.32;7.63;;;;;;;7.39;84.70;93574.81;4995939;28;20207;-72
2022/11/23 03:15:57;;;;;;;8.77;7.97;;;;;;;7.37;84.17;93574.38;4996866;28;20223;-71
2022/11/23 03:18:25;;;;;;;8.63;7.72;;;;;;;7.37;84.05;93569.69;4996004;28;20258;-71
2022/11/23 03:20:52;;;;;;;8.15;7.45;;;;;;;7.39;83.98;93566.56;5010825;28;20231;-72
2022/11/23 03:23:19;;;;;;;8.88;8.07;;;;;;;7.40;84.23;93557.97;5015041;28;20222;-71
2022/11/23 03:25:45;;;;;;;8.30;7.60;;;;;;;7.39;84.53;93572.06;5015042;28;20195;-71
2022/11/23 03:28:12;;;;;;;9.10;8.30;;;;;;;7.40;84.37;93579.91;5015672;28;20203;-71
2022/11/23 03:30:39;;;;;;;8.10;7.40;;;;;;;7.40;83.99;93555.22;5015172;28;20206;-71
2022/11/23 03:33:07;;;;;;;9.02;8.32;;;;;;;7.34;83.87;93584.16;5015323;28;20191;-71
2022/11/23 03:35:34;;;;;;;9.05;8.15;;;;;;;7.28;84.34;93549.16;5014674;28;20206;-71
2022/11/23 03:38:00;;;;;;;7.82;7.22;;;;;;;7.23;85.20;93559.31;5015293;28;20207;-71
2022/11/23 03:40:27;;;;;;;7.97;7.25;;;;;;;7.29;84.70;93558.97;5015312;28;20526;-72
2022/11/23 03:42:54;;;;;;;7.40;6.70;;;;;;;7.28;84.35;93517.06;5015031;28;20229;-72
2022/11/23 03:45:21;;;;;;;8.10;7.30;;;;;;;7.31;84.30;93553.94;5015118;28;20592;-72
2022/11/23 03:47:47;;;;;;;6.93;6.28;;;;;;;7.32;84.40;93534.34;5015120;28;20207;-72
2022/11/23 03:50:16;;;;;;;6.85;6.25;;;;;;;7.28;84.42;93541.72;5014973;28;20195;-72
2022/11/23 03:52:42;;;;;;;5.60;5.10;;;;;;;7.31;84.14;93523.75;5015072;28;20191;-72
2022/11/23 03:55:10;;;;;;;6.22;5.63;;;;;;;7.35;83.63;93533.59;5014799;28;20594;-72
2022/11/23 03:57:37;;;;;;;6.70;6.10;;;;;;;7.32;83.61;93542.56;5014440;28;20651;-72
2022/11/23 04:00:04;;;;;;;6.15;5.63;;;;;;;7.35;83.73;93530.88;5015216;28;20265;-72
2022/11/23 04:02:31;;;;;;;6.22;5.63;;;;;;;7.37;83.42;93539.53;5015041;28;20214;-72
2022/11/23 04:04:58;;;;;;;6.25;5.68;;;;;;;7.41;83.97;93545.06;5014994;28;20269;-72
2022/11/23 04:07:26;;;;;;;6.15;5.65;;;;;;;7.41;83.89;93561.53;5014640;28;20199;-72
2022/11/23 04:09:52;;;;;;;8.85;7.95;;;;;;;7.42;83.61;93544.69;5015146;28;20202;-72
2022/11/23 04:12:19;;;;;;;6.65;6.05;;;;;;;7.42;83.90;93549.38;5014721;28;20199;-72
2022/11/23 04:14:46;;;;;;;6.55;5.95;;;;;;;7.42;83.41;93546.66;5014846;28;20207;-72
2022/11/23 04:17:13;;;;;;;7.13;6.53;;;;;;;7.42;83.63;93561.16;5014658;28;20207;-72
2022/11/23 04:19:39;;;;;;;6.93;6.07;;;;;;;7.42;83.57;93549.38;5014485;28;20257;-72
2022/11/23 04:22:06;;;;;;;6.40;5.90;;;;;;;7.40;83.56;93557.97;5014743;28;20186;-72
2022/11/23 04:24:34;;;;;;;6.43;5.82;;;;;;;7.41;83.87;93567.00;5030797;28;20231;-72
2022/11/23 04:27:01;;;;;;;5.90;5.43;;;;;;;7.41;84.00;93564.28;5014692;28;20203;-72
2022/11/23 04:29:28;;;;;;;7.05;6.35;;;;;;;7.39;83.88;93566.56;5014063;28;20191;-72
2022/11/23 04:31:54;;;;;;;6.57;6.07;;;;;;;7.37;84.45;93572.44;5014237;28;20199;-72
2022/11/23 04:34:21;;;;;;;6.68;6.07;;;;;;;7.38;84.28;93556.78;5014587;28;20203;-72
2022/11/23 04:36:48;;;;;;;7.15;6.55;;;;;;;7.39;84.46;93561.09;5014087;28;20202;-72
2022/11/23 04:39:15;;;;;;;7.30;6.60;;;;;;;7.39;84.27;93569.31;5014412;28;20199;-72
2022/11/23 04:41:43;;;;;;;8.57;7.70;;;;;;;7.37;84.26;93563.41;5014281;28;20526;-71
2022/11/23 04:44:10;;;;;;;8.77;7.97;;;;;;;7.36;84.24;93573.59;5014256;28;20222;-71
2022/11/23 04:46:37;;;;;;;9.55;8.68;;;;;;;7.34;83.59;93573.19;5016437;28;20210;-72
2022/11/23 04:49:04;;;;;;;9.40;8.50;;;;;;;7.31;83.80;93575.88;5018432;28;20203;-72
2022/11/23 04:51:31;;;;;;;9.35;8.55;;;;;;;7.30;83.87;93575.06;5018275;28;20195;-73
2022/11/23 04:53:57;;;;;;;10.05;9.10;;;;;;;7.30;83.81;93604.44;5018477;28;20210;-72
2022/11/23 04:56:25;;;;;;;9.15;8.35;;;;;;;7.26;84.00;93592.63;5018463;28;20286;-72
2022/11/23 04:58:53;;;;;;;9.68;8.88;;;;;;;7.27;83.92;93583.25;5018053;28;20218;-72
2022/11/23 05:01:20;;;;;;;9.35;8.55;;;;;;;7.28;83.87;93593.06;5017824;28;20207;-72
2022/11/23 05:03:49;;;;;;;9.77;8.80;;;;;;;7.28;84.01;93591.09;5017624;28;20219;-72
2022/11/23 05:06:16;;;;;;;10.93;9.73;;;;;;;7.29;83.71;93594.63;5034849;28;20199;-72
2022/11/23 05:08:43;;;;;;;9.35;8.43;;;;;;;7.28;84.08;93587.56;5018161;28;20195;-72
2022/11/23 05:11:10;;;;;;;9.63;8.75;;;;;;;7.24;83.70;93587.50;5017506;28;20199;-72
2022/11/23 05:13:36;;;;;;;9.60;8.80;;;;;;;7.24;83.66;93593.00;5017734;28;20206;-72
2022/11/23 05:16:05;;;;;;;10.63;9.52;;;;;;;7.20;83.64;93581.97;5017859;28;20195;-72
2022/11/23 05:18:31;;;;;;;11.90;9.95;;;;;;;7.20;83.61;93594.88;5018041;28;20195;-72
2022/11/23 05:20:58;;;;;;;10.93;9.90;;;;;;;7.20;83.88;93584.72;5017604;28;20246;-72
2022/11/23 05:23:25;;;;;;;10.48;9.48;;;;;;;7.20;83.89;93598.41;5034063;28;20572;-71
2022/11/23 05:25:51;;;;;;;11.35;10.25;;;;;;;7.19;84.05;93587.84;5017358;28;20195;-71
2022/11/23 05:28:20;;;;;;;10.77;9.77;;;;;;;7.18;84.12;93603.47;5017302;28;20241;-71
2022/11/23 05:30:47;;;;;;;10.65;9.65;;;;;;;7.17;83.89;93599.16;5017736;28;20199;-72
2022/11/23 05:33:16;;;;;;;10.68;9.70;;;;;;;7.17;84.22;93566.25;5017562;28;20540;-71
2022/11/23 05:35:43;;;;;;;11.05;10.05;;;;;;;7.19;84.55;93549.44;5017151;28;20202;-72
2022/11/23 05:38:10;;;;;;;11.52;10.27;;;;;;;7.17;84.72;93547.06;5017393;28;20195;-72
2022/11/23 05:40:37;;;;;;;12.10;10.90;;;;;;;7.13;84.98;93561.88;5017384;28;20199;-72
2022/11/23 05:43:05;;;;;;;12.05;10.85;;;;;;;7.14;84.72;93569.72;5017268;28;20207;-71
2022/11/23 05:45:32;;;;;;;12.38;11.07;;;;;;;7.14;84.67;93569.72;5016995;28;20218;-71
2022/11/23 05:47:59;;;;;;;11.70;10.50;;;;;;;7.18;84.26;93584.28;5017338;28;20590;-72
2022/11/23 05:50:28;;;;;;;11.32;10.20;;;;;;;7.21;84.42;93583.53;5016949;28;20199;-72
2022/11/23 05:52:56;;;;;;;10.23;9.23;;;;;;;7.24;84.35;93582.81;5017216;28;20516;-72
2022/11/23 05:55:23;;;;;;;10.77;9.73;;;;;;;7.24;84.20;93582.03;5016649;28;20658;-72
2022/11/23 05:57:50;;;;;;;10.45;9.52;;;;;;;7.24;84.00;93571.06;5016721;28;20203;-72
2022/11/23 06:00:18;;;;;;;10.50;9.57;;;;;;;7.24;84.38;93571.84;5017094;28;20195;-71
2022/11/23 06:02:44;;;;;;;11.32;10.32;;;;;;;7.24;84.44;93555.38;5016742;28;20203;-71
2022/11/23 06:05:11;;;;;;;11.02;10.02;;;;;;;7.25;84.03;93572.63;5033490;28;20548;-71
2022/11/23 06:07:39;;;;;;;10.82;9.73;;;;;;;7.22;84.19;93584.31;5016747;28;20210;-72
2022/11/23 06:10:07;;;;;;;11.45;10.27;;;;;;;7.21;84.63;93580.81;5016713;28;20635;-74
2022/11/23 06:12:34;;;;;;;11.45;10.40;;;;;;;7.23;84.65;93597.69;5016940;28;20203;-72
2022/11/23 06:15:01;;;;;;;13.68;12.30;;;;;;;7.26;84.43;93595.34;5016723;28;20199;-74
2022/11/23 06:17:27;;;;;;;12.25;11.15;;;;;;;7.28;84.56;93588.34;5016789;28;20190;-71
2022/11/23 06:19:54;;;;;;;11.90;10.90;;;;;;;7.31;84.55;93597.81;5016904;28;20230;-71
2022/11/23 06:22:21;;;;;;;11.38;10.48;;;;;;;7.32;84.60;93608.41;5016744;28;20199;-71
2022/11/23 06:24:49;;;;;;;11.52;10.52;;;;;;;7.35;84.33;93615.91;5016614;28;20223;-72
2022/11/23 06:27:19;;;;;;;11.63;10.63;;;;;;;7.37;84.35;93608.09;5016589;28;20191;-71
2022/11/23 06:29:46;;;;;;;12.00;11.00;;;;;;;7.37;84.38;93624.56;5016538;28;20199;-72
2022/11/23 06:32:14;;;;;;;12.27;11.18;;;;;;;7.40;84.64;93612.81;5016795;28;20191;-72
2022/11/23 06:34:42;;;;;;;11.68;10.57;;;;;;;7.38;84.17;93626.13;5016581;28;20191;-72
2022/11/23 06:37:09;;;;;;;11.10;10.00;;;;;;;7.40;84.42;93615.56;5016311;28;20297;-73
2022/11/23 06:39:36;;;;;;;10.70;9.80;;;;;;;7.42;84.17;93610.53;5016345;28;20195;-72
2022/11/23 06:42:04;;;;;;;10.57;9.68;;;;;;;7.45;83.93;93615.28;5016037;28;20241;-72
2022/11/23 06:44:31;;;;;;;10.80;9.82;;;;;;;7.50;84.03;93607.88;5016322;28;20230;-72
2022/11/23 06:46:57;;;;;;;11.23;10.15;;;;;;;7.52;84.09;93606.38;5032523;28;20199;-72
2022/11/23 06:49:25;;;;;;;11.77;10.63;;;;;;;7.54;84.27;93601.28;5015973;28;20199;-72
2022/11/23 06:51:52;;;;;;;10.88;9.80;;;;;;;7.61;84.09;93598.66;5016554;28;20227;-72
2022/11/23 06:54:18;;;;;;;10.32;9.43;;;;;;;7.66;83.97;93601.09;5016497;28;20203;-72
2022/11/23 06:56:45;;;;;;;10.70;9.70;;;;;;;7.68;84.24;93600.72;5016194;28;20226;-73
2022/11/23 06:59:14;;;;;;;11.13;10.13;;;;;;;7.71;84.00;93609.00;5015695;28;20206;-73
2022/11/23 07:01:41;;;;;;;10.43;9.52;;;;;;;7.76;84.12;93609.84;5015405;28;20725;-72
2022/11/23 07:04:08;;;;;;;10.00;9.20;;;;;;;7.80;84.06;93605.19;5016014;28;20227;-72
2022/11/23 07:06:35;;;;;;;9.70;8.90;;;;;;;7.84;83.83;93606.03;5015934;28;20203;-72
2022/11/23 07:09:02;;;;;;;9.50;8.68;;;;;;;7.87;83.59;93600.59;5015102;28;20203;-73
2022/11/23 07:11:29;;;;;;;8.93;8.13;;;;;;;7.92;83.50;93611.25;5015084;28;20511;-72
2022/11/23 07:13:56;;;;;;;8.35;7.75;;;;;;;8.00;83.83;93603.13;5015338;28;20195;-73
2022/11/23 07:16:24;;;;;;;9.40;8.60;;;;;;;8.05;83.91;93609.06;5015574;28;20195;-73
2022/11/23 07:18:51;;;;;;;9.85;9.05;;;;;;;8.05;83.51;93620.03;5015215;28;20203;-72
2022/11/23 07:21:18;;;;;;;10.43;9.45;;;;;;;8.08;83.48;93618.50;5030924;28;20235;-71
2022/11/23 07:23:44;;;;;;;11.48;10.40;;;;;;;8.12;83.46;93609.16;5015332;28;20592;-72
2022/11/23 07:26:11;;;;;;;9.57;8.77;;;;;;;8.14;83.26;93606.06;5015725;28;20202;-72
2022/11/23 07:28:38;;;;;;;9.93;9.02;;;;;;;8.10;83.04;93619.72;5015188;28;20199;-72
2022/11/23 07:31:05;;;;;;;9.90;9.10;;;;;;;8.06;83.04;93593.38;5015005;28;20214;-72
2022/11/23 07:33:33;;;;;;;9.57;8.77;;;;;;;8.07;83.18;93609.50;5015001;28;20556;-72
2022/11/23 07:36:01;;;;;;;10.60;9.70;;;;;;;8.08;83.20;93608.31;5015309;28;20257;-72
2022/11/23 07:38:28;;;;;;;10.73;9.82;;;;;;;8.13;83.33;93618.19;5015395;28;20195;-72
2022/11/23 07:40:54;;;;;;;11.45;10.35;;;;;;;8.17;83.63;93624.53;5015306;28;20199;-72
2022/11/23 07:43:22;;;;;;;10.93;9.85;;;;;;;8.22;83.32;93604.19;5015146;28;20196;-73
2022/11/23 07:45:49;;;;;;;10.18;9.20;;;;;;;8.28;83.43;93614.47;5014882;28;20223;-72
2022/11/23 07:48:16;;;;;;;10.27;9.38;;;;;;;8.39;83.77;93600.91;5015137;28;20199;-72
2022/11/23 07:50:44;;;;;;;10.57;9.55;;;;;;;8.53;83.84;93609.28;5015257;28;20207;-72
2022/11/23 07:53:11;;;;;;;10.00;9.20;;;;;;;8.68;83.63;93608.28;5014957;28;20203;-72
2022/11/23 07:55:37;;;;;;;9.82;9.00;;;;;;;8.86;83.85;93613.97;5014618;28;20627;-72
2022/11/23 07:58:05;;;;;;;10.07;9.18;;;;;;;9.00;83.97;93609.78;5015520;28;20258;-72
2022/11/23 08:00:32;;;;;;;9.90;9.10;;;;;;;9.03;83.23;93603.53;5015242;28;20203;-73
2022/11/23 08:02:59;;;;;;;10.45;9.38;;;;;;;9.07;82.54;93596.09;5014640;28;20632;-72
2022/11/23 08:05:26;;;;;;;9.48;8.50;;;;;;;9.18;82.44;93601.69;5014834;28;20226;-73
2022/11/23 08:07:59;;;;;;;10.32;9.32;;;;;;;9.25;82.11;93612.75;5015245;28;20219;-73
2022/11/23 08:10:26;;;;;;;10.60;9.70;;;;;;;9.30;81.85;93587.66;5015382;28;20206;-72
2022/11/23 08:12:53;;;;;;;11.15;10.00;;;;;;;9.43;81.91;93597.19;5015008;28;20194;-72
2022/11/23 08:15:20;;;;;;;10.43;9.52;;;;;;;9.68;82.40;93588.31;5014671;28;20195;-72
2022/11/23 08:17:47;;;;;;;10.88;9.98;;;;;;;9.80;81.71;93572.28;5014309;28;20210;-72
2022/11/23 08:20:13;;;;;;;10.80;9.90;;;;;;;9.92;80.88;93584.94;5015074;28;20309;-72
2022/11/23 08:22:40;;;;;;;10.68;9.77;;;;;;;10.00;81.38;93594.03;5030735;28;20203;-72
2022/11/23 08:25:09;;;;;;;11.27;10.15;;;;;;;10.12;81.32;93585.44;5014589;28;20215;-72
2022/11/23 08:27:35;;;;;;;11.45;10.25;;;;;;;10.21;80.45;93580.38;5014423;28;20199;-72
2022/11/23 08:30:02;;;;;;;14.57;11.95;;;;;;;10.31;80.56;93579.66;5014560;28;20242;-72
2022/11/23 08:32:29;;;;;;;15.45;11.82;;;;;;;10.45;80.95;93572.63;5014517;28;20198;-72
2022/11/23 08:34:56;;;;;;;16.05;14.55;;;;;;;10.55;79.48;93574.63;5014813;28;20199;-72
2022/11/23 08:37:22;;;;;;;18.67;16.98;;;;;;;10.58;78.89;93584.88;5030801;28;20203;-72
2022/11/23 08:39:49;;;;;;;20.75;18.85;;;;;;;10.65;79.50;93586.88;5014920;28;20191;-72
2022/11/23 08:42:17;;;;;;;20.65;18.45;;;;;;;10.73;79.92;93575.47;5031062;28;20195;-72
2022/11/23 08:44:46;;;;;;;20.92;18.80;;;;;;;10.80;78.38;93577.47;5015403;28;20222;-73
2022/11/23 08:47:13;;;;;;;21.27;19.38;;;;;;;10.80;78.93;93572.72;5014675;28;20282;-73
2022/11/23 08:49:40;;;;;;;16.23;14.63;;;;;;;10.84;78.25;93579.03;5030589;28;20206;-73
2022/11/23 08:52:07;;;;;;;13.18;12.00;;;;;;;11.08;78.59;93569.25;5014308;28;20191;-73
2022/11/23 08:54:33;;;;;;;17.55;15.90;;;;;;;11.22;77.10;93584.22;5014214;28;20546;-72
2022/11/23 08:57:00;;;;;;;16.40;14.90;;;;;;;11.29;77.42;93589.75;5014121;28;20615;-72
2022/11/23 08:59:28;;;;;;;15.70;14.27;;;;;;;11.35;76.19;93576.34;5014037;28;20206;-71
2022/11/23 09:01:55;;;;;;;14.80;13.40;;;;;;;11.48;75.85;93586.59;5014781;28;20203;-71
2022/11/23 09:04:22;;;;;;;15.82;14.18;;;;;;;11.59;75.49;93583.06;5014174;28;20234;-71
2022/11/23 09:06:49;;;;;;;14.48;13.07;;;;;;;11.66;74.79;93583.06;5014400;28;20597;-71
2022/11/23 09:09:15;;;;;;;15.25;13.77;;;;;;;11.81;75.24;93579.09;5014145;28;20205;-72
2022/11/23 09:11:42;;;;;;;14.65;13.25;;;;;;;11.92;74.92;93573.59;5013715;28;20722;-72
2022/11/23 09:14:09;;;;;;;15.80;14.15;;;;;;;12.00;73.24;93562.09;5013767;28;20199;-71
2022/11/23 09:16:37;;;;;;;15.13;13.77;;;;;;;11.99;73.44;93570.81;5014346;28;20187;-71
2022/11/23 09:19:06;;;;;;;16.42;14.88;;;;;;;12.03;73.05;93561.31;5014116;28;20615;-71
2022/11/23 09:21:34;;;;;;;15.50;14.10;;;;;;;12.06;73.06;93572.75;5017327;28;20206;-71
2022/11/23 09:24:01;;;;;;;15.88;14.48;;;;;;;11.98;70.93;93563.69;5017296;28;20284;-71
2022/11/23 09:26:29;;;;;;;15.68;14.18;;;;;;;11.98;71.44;93564.50;5017184;28;20214;-71
2022/11/23 09:28:56;;;;;;;15.60;13.98;;;;;;;12.12;72.56;93571.94;5017497;28;20198;-71
2022/11/23 09:31:25;;;;;;;16.10;14.63;;;;;;;12.26;72.17;93571.13;5017200;28;20206;-72
2022/11/23 09:33:53;;;;;;;15.98;14.48;;;;;;;12.28;71.11;93564.00;5019307;28;20206;-71
2022/11/23 09:36:21;;;;;;;16.85;15.10;;;;;;;12.32;71.77;93560.44;5020752;28;20252;-71
2022/11/23 09:38:48;;;;;;;15.45;14.05;;;;;;;12.37;71.28;93557.25;5021213;28;20209;-71
2022/11/23 09:41:34;;;;;;;16.10;14.65;;;;;;;12.43;70.36;93545.38;5020660;28;20206;-72
2022/11/23 09:44:03;;;;;;;14.15;12.90;;;;;;;12.45;70.19;93544.97;5020334;28;20186;-71
2022/11/23 09:46:35;;;;;;;12.90;11.70;;;;;;;12.43;70.10;93541.84;5037232;28;20285;-71
2022/11/23 09:49:12;;;;;;;13.88;12.57;;;;;;;12.45;69.77;93545.75;5020306;28;20206;-71
2022/11/23 09:51:40;;;;;;;12.55;11.45;;;;;;;12.50;70.57;93556.41;5020224;28;20201;-71
2022/11/23 09:54:14;;;;;;;13.60;12.32;;;;;;;12.64;70.15;93550.03;5020617;28;20206;-71
2022/11/23 09:56:41;;;;;;;13.20;11.95;;;;;;;12.60;70.01;93553.97;5037069;28;20194;-72
2022/11/23 09:59:12;;;;;;;13.45;12.30;;;;;;;12.66;70.54;93552.38;5020549;28;20218;-72
2022/11/23 10:01:39;;;;;;;14.23;12.82;;;;;;;12.93;71.14;93561.72;5020064;28;20561;-72
2022/11/23 10:04:09;;;;;;;12.35;11.15;;;;;;;13.17;69.31;93562.75;5020121;28;20199;-72
2022/11/23 10:06:40;;;;;;;11.02;9.73;;;;;;;13.40;69.49;93548.38;5020217;28;20222;-71
2022/11/23 10:09:19;;;;;;;9.75;8.68;;;;;;;13.43;65.98;93552.31;5020514;28;20205;-72
2022/11/23 10:12:04;;;;;;;9.80;8.95;;;;;;;13.29;66.71;93549.66;5019999;28;20194;-71
2022/11/23 10:14:57;;;;;;;9.85;8.93;;;;;;;13.51;67.54;93542.75;5020167;28;20191;-73
2022/11/23 10:17:35;;;;;;;10.57;9.43;;;;;;;13.62;67.35;93540.69;5017710;28;20281;-72
2022/11/23 10:20:20;;;;;;;8.65;7.78;;;;;;;13.74;65.03;93544.94;5016602;28;20238;-72
2022/11/23 10:22:55;;;;;;;8.20;7.43;;;;;;;13.97;65.19;93539.53;5016676;28;20206;-73
2022/11/23 10:25:23;;;;;;;8.63;7.80;;;;;;;14.18;64.09;93524.66;5016491;28;20230;-73
2022/11/23 10:27:51;;;;;;;9.60;7.10;;;;;;;14.25;63.44;93525.81;5016194;28;20195;-72
2022/11/23 10:30:20;;;;;;;13.30;11.43;;;;;;;14.20;62.02;93522.28;5016791;28;20199;-72
2022/11/23 10:32:50;;;;;;;9.52;8.32;;;;;;;14.16;62.37;93531.81;5016194;28;20199;-72
2022/11/23 10:35:21;;;;;;;6.78;6.07;;;;;;;14.24;62.15;93529.78;5015990;28;20214;-72
2022/11/23 10:37:49;;;;;;;8.57;6.82;;;;;;;14.27;62.29;93523.38;5016256;28;20203;-72
2022/11/23 10:40:17;;;;;;;7.00;5.97;;;;;;;14.26;63.19;93513.50;5016465;28;20213;-72
2022/11/23 10:42:47;;;;;;;7.22;6.55;;;;;;;14.15;62.58;93522.72;5016073;28;20210;-72
2022/11/23 10:45:19;;;;;;;7.90;6.50;;;;;;;14.20;63.04;93529.81;5016006;28;20238;-72
2022/11/23 10:47:50;;;;;;;6.78;5.90;;;;;;;14.33;62.95;93522.53;5016043;28;20199;-72
2022/11/23 10:50:23;;;;;;;6.30;5.70;;;;;;;14.37;62.81;93522.47;5016710;28;20200;-72
2022/11/23 10:52:53;;;;;;;2.33;1.90;;;;;;;14.56;56.50;93510.78;5016088;28;20202;-72
2022/11/23 10:55:25;;;;;;;2.17;1.10;;;;;;;14.72;51.13;93501.06;5016021;28;20194;-72
2022/11/23 10:57:52;;;;;;;1.05;1.05;;;;;;;14.65;51.37;93504.72;5032323;28;20720;-72
2022/11/23 11:00:20;;;;;;;1.25;1.05;;;;;;;14.70;51.38;93501.47;5016285;28;20191;-72
2022/11/23 11:02:49;;;;;;;1.33;1.00;;;;;;;14.99;52.86;93503.84;5015767;28;20195;-72
2022/11/23 11:05:31;;;;;;;1.00;0.90;;;;;;;15.16;49.22;93509.13;5016167;28;20227;-72
2022/11/23 11:08:01;;;;;;;1.33;1.23;;;;;;;15.34;49.60;93508.09;5016132;28;20191;-72
2022/11/23 11:10:34;;;;;;;0.85;0.85;;;;;;;15.41;47.83;93511.53;5015878;28;20191;-72
2022/11/23 11:13:01;;;;;;;1.30;1.08;;;;;;;15.30;47.17;93499.81;5015510;28;20237;-72
2022/11/23 11:15:28;;;;;;;2.53;1.10;;;;;;;15.31;47.79;93501.38;5015360;28;20203;-72
2022/11/23 11:17:56;;;;;;;2.33;1.20;;;;;;;15.45;48.58;93489.25;5016234;28;20281;-72
2022/11/23 11:20:31;;;;;;;1.33;1.02;;;;;;;15.54;47.49;93499.81;5015746;28;20242;-72
2022/11/23 11:23:00;;;;;;;1.33;1.00;;;;;;;15.46;47.68;93498.34;5015426;28;20210;-72
2022/11/23 11:25:29;;;;;;;1.48;0.90;;;;;;;15.48;47.23;93496.75;5014877;28;20227;-72
2022/11/23 11:27:58;;;;;;;1.33;1.00;;;;;;;15.48;46.60;93496.75;5015321;28;20265;-72
2022/11/23 11:30:26;;;;;;;2.30;1.10;;;;;;;15.16;46.30;93488.91;5015790;28;20206;-72
2022/11/23 11:32:57;;;;;;;1.17;1.02;;;;;;;15.14;47.60;93489.34;5015339;28;20260;-72
2022/11/23 11:35:26;;;;;;;2.00;1.20;;;;;;;15.11;47.53;93503.28;5015263;28;20215;-72
2022/11/23 11:37:56;;;;;;;0.82;0.82;;;;;;;15.13;47.74;93487.75;5016844;28;20191;-72